Time;durP1;ratioP1;P1;durP2;ratioP2;P2;SDS_P1;SDS_P2;PMS_P1;PMS_P2;Temp;Humidity;BMP_temperature;BMP_pressure;BME280_temperature;BME280_humidity;BME280_pressure;Samples;Min_cycle;Max_cycle;Signal;HPM_P1;HPM_P2
2022/04/17 00:01:02;;;;;;;22.45;12.93;;;2.50;85.30;;;;;;5071997;28;20040;-85
2022/04/17 00:03:28;;;;;;;23.63;13.18;;;2.50;85.20;;;;;;5054697;28;20049;-83
2022/04/17 00:05:54;;;;;;;21.05;11.43;;;2.50;85.20;;;;;;5072295;28;20028;-85
2022/04/17 00:08:20;;;;;;;21.25;11.50;;;2.50;85.50;;;;;;5072752;28;20043;-83
2022/04/17 00:10:46;;;;;;;18.52;10.82;;;2.40;86.00;;;;;;5072330;28;20017;-85
2022/04/17 00:13:13;;;;;;;21.02;11.80;;;2.40;87.40;;;;;;5073006;28;20474;-83
2022/04/17 00:15:38;;;;;;;20.27;10.75;;;2.40;88.00;;;;;;5072142;28;20047;-85
2022/04/17 00:18:04;;;;;;;33.45;15.60;;;2.30;87.80;;;;;;5072433;28;20062;-82
2022/04/17 00:20:30;;;;;;;33.55;14.93;;;2.30;88.00;;;;;;5072435;28;20393;-86
2022/04/17 00:22:55;;;;;;;25.63;12.50;;;2.30;88.30;;;;;;5072708;28;20032;-83
2022/04/17 00:25:21;;;;;;;18.90;11.05;;;2.20;88.50;;;;;;5072176;28;20178;-85
2022/04/17 00:27:46;;;;;;;26.42;13.60;;;2.20;89.00;;;;;;5072384;28;20023;-83
2022/04/17 00:30:12;;;;;;;19.10;10.63;;;2.10;89.60;;;;;;5072262;28;20021;-83
2022/04/17 00:32:38;;;;;;;17.85;9.23;;;2.10;90.50;;;;;;5072734;28;20428;-83
2022/04/17 00:35:06;;;;;;;19.10;9.23;;;2.00;91.20;;;;;;5071858;28;20063;-85
2022/04/17 00:37:32;;;;;;;16.00;9.20;;;1.90;91.90;;;;;;5072462;28;20405;-83
2022/04/17 00:39:58;;;;;;;16.63;9.10;;;1.90;92.60;;;;;;5071803;28;20090;-85
2022/04/17 00:42:23;;;;;;;18.30;10.55;;;1.80;93.50;;;;;;5054445;28;20027;-85
2022/04/17 00:44:49;;;;;;;18.85;8.88;;;1.80;94.30;;;;;;5053951;28;20074;-83
2022/04/17 00:47:17;;;;;;;18.85;8.25;;;1.80;94.30;;;;;;5072304;28;20056;-83
2022/04/17 00:49:46;;;;;;;15.13;9.45;;;1.80;94.20;;;;;;5071876;28;20020;-86
2022/04/17 00:52:13;;;;;;;19.48;9.88;;;1.70;94.90;;;;;;5072340;28;20074;-85
2022/04/17 00:54:44;;;;;;;20.02;10.05;;;1.70;95.10;;;;;;5071463;28;20037;-85
2022/04/17 00:57:18;;;;;;;19.38;9.00;;;1.60;95.40;;;;;;5072403;28;20055;-85
2022/04/17 00:59:45;;;;;;;17.50;9.82;;;1.60;95.80;;;;;;5071476;28;20053;-86
2022/04/17 01:02:12;;;;;;;15.95;9.30;;;1.60;96.30;;;;;;5072774;28;20021;-84
2022/04/17 01:04:39;;;;;;;16.30;9.43;;;1.60;96.50;;;;;;5075383;28;20397;-84
2022/04/17 01:07:05;;;;;;;15.68;9.23;;;1.50;96.70;;;;;;5075788;28;20069;-85
2022/04/17 01:09:31;;;;;;;16.67;9.10;;;1.50;97.10;;;;;;5057604;28;20091;-83
2022/04/17 01:11:58;;;;;;;12.27;8.10;;;1.40;97.80;;;;;;5075273;28;20028;-83
2022/04/17 01:14:26;;;;;;;16.60;8.80;;;1.40;97.50;;;;;;5056990;28;20339;-87
2022/04/17 01:16:52;;;;;;;18.00;8.45;;;1.40;97.80;;;;;;5057570;28;20052;-85
2022/04/17 01:19:18;;;;;;;17.17;8.82;;;1.30;97.50;;;;;;5057307;28;20071;-83
2022/04/17 01:21:46;;;;;;;14.30;8.80;;;1.30;97.20;;;;;;5075557;28;20020;-82
2022/04/17 01:26:57;;;;;;;13.85;8.10;;;1.20;97.10;;;;;;5075640;28;20107;-86
2022/04/17 01:29:34;;;;;;;13.27;8.15;;;1.20;97.00;;;;;;5075431;28;20099;-83
2022/04/17 01:32:08;;;;;;;13.13;8.50;;;1.20;97.10;;;;;;5057298;28;20047;-83
2022/04/17 01:34:35;;;;;;;17.25;9.05;;;1.20;97.30;;;;;;5056816;28;20039;-85
2022/04/17 01:37:01;;;;;;;14.48;7.82;;;1.10;98.00;;;;;;5075255;28;20082;-83
2022/04/17 01:39:27;;;;;;;15.70;8.43;;;1.10;98.20;;;;;;5074837;28;20433;-85
2022/04/17 01:41:55;;;;;;;17.60;9.98;;;1.10;98.80;;;;;;5057702;28;20445;-85
2022/04/17 01:44:21;;;;;;;20.55;11.32;;;1.10;99.20;;;;;;5074381;28;20075;-82
2022/04/17 01:46:47;;;;;;;19.42;10.27;;;1.00;99.90;;;;;;5074942;28;20074;-85
2022/04/17 01:49:15;;;;;;;16.85;9.57;;;1.00;99.90;;;;;;5074209;28;20020;-84
2022/04/17 01:51:41;;;;;;;14.57;9.30;;;1.00;99.90;;;;;;5074877;28;20028;-83
2022/04/17 01:54:09;;;;;;;17.40;10.13;;;1.00;99.90;;;;;;5073832;28;20028;-86
2022/04/17 01:56:36;;;;;;;14.57;8.93;;;1.00;99.90;;;;;;5074368;28;20029;-84
2022/04/17 01:59:04;;;;;;;16.02;8.57;;;1.00;99.90;;;;;;5074031;28;20028;-84
2022/04/17 02:01:30;;;;;;;11.32;7.32;;;1.10;99.90;;;;;;5074818;28;20081;-83
2022/04/17 02:03:56;;;;;;;15.05;7.57;;;1.10;99.90;;;;;;5074372;28;20501;-84
2022/04/17 02:06:21;;;;;;;15.45;8.68;;;1.00;99.90;;;;;;5074718;28;20036;-84
2022/04/17 02:08:47;;;;;;;12.23;7.70;;;1.00;99.90;;;;;;5074284;28;20021;-85
2022/04/17 02:11:13;;;;;;;11.30;7.75;;;1.00;99.90;;;;;;5056701;28;20055;-85
2022/04/17 02:13:39;;;;;;;19.38;10.95;;;1.00;99.90;;;;;;5073595;28;20419;-83
2022/04/17 02:16:05;;;;;;;11.93;7.88;;;1.00;99.90;;;;;;5073646;28;20039;-84
2022/04/17 02:18:31;;;;;;;14.82;8.18;;;0.90;99.90;;;;;;5074379;28;20108;-83
2022/04/17 02:20:56;;;;;;;18.63;8.43;;;0.90;99.90;;;;;;5073727;28;20432;-85
2022/04/17 02:23:22;;;;;;;19.25;9.07;;;0.90;99.90;;;;;;5074457;28;20099;-85
2022/04/17 02:25:48;;;;;;;11.05;7.07;;;0.90;99.90;;;;;;5073750;28;20405;-83
2022/04/17 02:28:14;;;;;;;14.63;7.60;;;0.90;99.90;;;;;;5074161;28;20031;-83
2022/04/17 02:30:40;;;;;;;14.55;8.65;;;0.90;99.90;;;;;;5056076;28;20032;-84
2022/04/17 02:33:06;;;;;;;13.75;8.15;;;1.00;99.90;;;;;;5074106;28;20416;-86
2022/04/17 02:35:31;;;;;;;13.25;9.10;;;0.90;99.90;;;;;;5073786;28;20078;-85
2022/04/17 02:37:57;;;;;;;16.70;7.47;;;1.00;99.90;;;;;;5073997;28;20082;-84
2022/04/17 02:40:23;;;;;;;13.00;7.05;;;0.90;99.90;;;;;;5073553;28;20035;-85
2022/04/17 02:42:48;;;;;;;11.88;7.30;;;0.90;99.90;;;;;;5073633;28;20031;-84
2022/04/17 02:45:14;;;;;;;13.57;8.00;;;0.90;99.90;;;;;;5073505;28;20021;-83
2022/04/17 02:47:43;;;;;;;12.35;7.97;;;0.90;99.90;;;;;;5073899;28;20032;-83
2022/04/17 02:50:13;;;;;;;14.43;8.10;;;0.90;99.90;;;;;;5073539;28;20035;-83
2022/04/17 02:52:39;;;;;;;15.73;7.63;;;0.90;99.90;;;;;;5073981;28;20024;-85
2022/04/17 02:55:06;;;;;;;15.60;8.68;;;0.90;99.90;;;;;;5073371;28;20089;-83
2022/04/17 02:57:32;;;;;;;12.50;7.97;;;0.90;99.90;;;;;;5073675;28;20394;-83
2022/04/17 02:59:58;;;;;;;13.73;7.90;;;0.90;99.90;;;;;;5054850;28;20052;-85
2022/04/17 03:07:54;;;;;;;11.40;7.93;;;0.80;99.90;;;;;;5073877;28;20043;-83
2022/04/17 03:10:20;;;;;;;12.43;7.25;;;0.80;99.90;;;;;;5073939;28;20471;-83
2022/04/17 03:12:45;;;;;;;13.90;7.65;;;0.80;99.90;;;;;;5073489;28;20146;-84
2022/04/17 03:15:11;;;;;;;16.30;7.88;;;0.80;99.90;;;;;;5055297;28;20033;-83
2022/04/17 03:17:37;;;;;;;10.85;6.85;;;0.80;99.90;;;;;;5073201;28;20106;-84
2022/04/17 03:20:04;;;;;;;15.57;9.18;;;0.80;99.90;;;;;;5072825;28;20032;-83
2022/04/17 03:22:30;;;;;;;12.77;9.95;;;0.80;99.90;;;;;;5073281;28;20398;-83
2022/04/17 03:24:56;;;;;;;12.50;9.02;;;0.80;99.90;;;;;;5072197;28;20025;-85
2022/04/17 03:27:22;;;;;;;15.25;7.93;;;0.90;99.30;;;;;;5073240;28;20025;-83
2022/04/17 03:29:48;;;;;;;13.45;8.15;;;0.90;99.40;;;;;;5072908;28;20021;-83
2022/04/17 03:32:14;;;;;;;11.68;8.70;;;0.80;99.40;;;;;;5055285;28;20024;-84
2022/04/17 03:34:40;;;;;;;14.73;8.90;;;0.80;99.10;;;;;;5072754;28;20027;-86
2022/04/17 03:37:05;;;;;;;14.55;10.88;;;0.90;99.30;;;;;;5055216;28;20024;-84
2022/04/17 03:39:31;;;;;;;23.15;12.82;;;0.80;99.60;;;;;;5072765;28;20036;-84
2022/04/17 03:41:57;;;;;;;17.90;10.02;;;0.80;99.70;;;;;;5072816;28;20103;-84
2022/04/17 03:44:23;;;;;;;20.20;11.73;;;0.80;99.90;;;;;;5072644;28;20021;-83
2022/04/17 03:46:49;;;;;;;31.10;18.02;;;0.80;99.90;;;;;;5072734;28;20016;-85
2022/04/17 03:49:15;;;;;;;24.63;13.80;;;0.80;99.90;;;;;;5072431;28;20382;-85
2022/04/17 03:51:41;;;;;;;31.27;15.98;;;0.80;99.90;;;;;;5072829;28;20021;-82
2022/04/17 03:54:06;;;;;;;31.90;15.07;;;0.70;99.90;;;;;;5072548;28;20039;-86
2022/04/17 03:56:33;;;;;;;33.45;18.02;;;0.70;99.90;;;;;;5055032;28;20028;-85
2022/04/17 03:58:59;;;;;;;28.27;14.65;;;0.70;99.90;;;;;;5071980;28;20173;-83
2022/04/17 04:01:26;;;;;;;19.73;12.98;;;0.70;99.90;;;;;;5072958;28;20537;-85
2022/04/17 04:03:53;;;;;;;19.70;11.27;;;0.70;99.90;;;;;;5072735;28;20058;-85
2022/04/17 04:06:20;;;;;;;16.77;9.00;;;0.80;99.90;;;;;;5054943;28;20016;-83
2022/04/17 04:08:51;;;;;;;17.77;9.38;;;0.80;99.90;;;;;;5072065;28;20036;-85
2022/04/17 04:11:20;;;;;;;16.83;9.23;;;0.80;99.90;;;;;;5072780;28;20432;-83
2022/04/17 04:13:45;;;;;;;16.48;11.02;;;0.80;99.90;;;;;;5072385;28;20017;-83
2022/04/17 04:16:11;;;;;;;14.25;9.57;;;0.90;99.90;;;;;;5072489;28;20027;-83
2022/04/17 04:18:37;;;;;;;17.95;13.00;;;0.90;99.90;;;;;;5072488;28;20445;-85
2022/04/17 04:21:03;;;;;;;16.33;9.95;;;0.80;99.90;;;;;;5054179;28;20112;-85
2022/04/17 04:23:35;;;;;;;19.58;10.73;;;0.90;99.90;;;;;;5072990;28;20021;-85
2022/04/17 04:26:02;;;;;;;14.82;8.63;;;0.90;99.90;;;;;;5054201;28;20386;-86
2022/04/17 04:28:36;;;;;;;10.93;9.07;;;1.00;99.90;;;;;;5072492;28;20046;-84
2022/04/17 04:31:06;;;;;;;15.75;10.07;;;1.10;99.90;;;;;;5072189;28;20075;-85
2022/04/17 04:33:37;;;;;;;13.95;8.55;;;1.10;99.90;;;;;;5054334;28;20031;-83
2022/04/17 04:36:05;;;;;;;15.10;10.30;;;1.10;99.90;;;;;;5071974;28;20492;-83
2022/04/17 04:38:32;;;;;;;11.88;8.43;;;1.10;99.90;;;;;;5075240;28;20032;-83
2022/04/17 04:40:59;;;;;;;15.82;11.43;;;1.20;99.90;;;;;;5057882;28;20039;-85
2022/04/17 04:43:25;;;;;;;18.73;11.05;;;1.30;99.90;;;;;;5075939;28;20024;-85
2022/04/17 04:51:27;;;;;;;16.88;10.50;;;1.40;98.30;;;;;;5056606;28;20118;-83
2022/04/17 04:53:55;;;;;;;14.27;9.38;;;1.50;98.10;;;;;;5056486;28;20017;-83
2022/04/17 04:56:20;;;;;;;17.30;9.52;;;1.50;97.70;;;;;;5058143;28;20059;-84
2022/04/17 04:58:47;;;;;;;13.23;8.98;;;1.60;96.80;;;;;;5057822;28;20438;-85
2022/04/17 05:01:13;;;;;;;17.35;9.43;;;1.60;95.80;;;;;;5075335;28;20037;-83
2022/04/17 05:03:39;;;;;;;12.13;7.75;;;1.70;94.40;;;;;;5075269;28;20016;-86
2022/04/17 05:06:06;;;;;;;13.75;9.23;;;1.80;94.70;;;;;;5063808;28;20016;-85
2022/04/17 05:08:31;;;;;;;15.25;8.48;;;1.80;92.90;;;;;;5075407;28;20009;-83
2022/04/17 05:10:57;;;;;;;13.52;8.80;;;1.90;92.60;;;;;;5075081;28;20047;-82
2022/04/17 05:13:23;;;;;;;9.57;7.05;;;2.00;91.30;;;;;;5075646;28;20021;-83
2022/04/17 05:15:49;;;;;;;8.90;7.15;;;2.00;89.60;;;;;;5074818;28;20013;-84
2022/04/17 05:18:15;;;;;;;11.07;7.57;;;2.20;89.90;;;;;;5075099;28;20128;-85
2022/04/17 05:20:41;;;;;;;12.57;8.23;;;2.20;89.90;;;;;;5074331;28;20573;-84
2022/04/17 05:23:26;;;;;;;11.73;8.65;;;2.30;90.20;;;;;;5075164;28;20035;-83
2022/04/17 05:25:54;;;;;;;10.77;7.28;;;2.30;89.60;;;;;;5075265;28;20025;-85
2022/04/17 05:28:20;;;;;;;14.00;8.52;;;2.40;89.70;;;;;;5075190;28;20370;-83
2022/04/17 05:30:46;;;;;;;13.15;7.25;;;2.40;88.40;;;;;;5057734;28;20378;-84
2022/04/17 05:33:12;;;;;;;11.23;7.20;;;2.40;87.50;;;;;;5075281;28;20024;-83
2022/04/17 05:35:38;;;;;;;9.50;7.03;;;2.50;88.10;;;;;;5056832;28;20186;-83
2022/04/17 05:38:05;;;;;;;12.07;7.40;;;2.60;86.70;;;;;;5075012;28;20016;-85
2022/04/17 05:40:37;;;;;;;11.50;6.70;;;2.70;86.40;;;;;;5074795;28;20486;-82
2022/04/17 05:43:04;;;;;;;10.50;6.60;;;2.80;86.00;;;;;;5075171;28;20025;-82
2022/04/17 05:45:30;;;;;;;9.30;7.05;;;3.00;82.80;;;;;;5074770;28;20028;-86
2022/04/17 05:47:56;;;;;;;8.27;6.30;;;3.20;81.30;;;;;;5056866;28;20023;-83
2022/04/17 05:50:22;;;;;;;9.45;5.93;;;3.20;79.30;;;;;;5057001;28;20021;-86
2022/04/17 05:52:48;;;;;;;8.55;5.95;;;3.40;78.90;;;;;;5075231;28;20021;-83
2022/04/17 05:55:14;;;;;;;8.70;6.10;;;3.60;78.40;;;;;;5074026;28;20366;-83
2022/04/17 05:57:41;;;;;;;10.55;5.80;;;3.70;77.90;;;;;;5074715;28;20024;-85
2022/04/17 06:00:08;;;;;;;7.07;5.63;;;3.80;76.30;;;;;;5073550;28;20055;-82
2022/04/17 06:02:35;;;;;;;11.55;6.40;;;3.70;75.10;;;;;;5074754;28;20517;-85
2022/04/17 06:05:03;;;;;;;12.90;6.90;;;3.90;75.20;;;;;;5074268;28;20025;-83
2022/04/17 06:07:29;;;;;;;13.73;9.20;;;3.90;75.00;;;;;;5074607;28;20497;-83
2022/04/17 06:09:55;;;;;;;9.52;6.05;;;3.90;74.00;;;;;;5074175;28;20024;-85
2022/04/17 06:12:21;;;;;;;7.15;5.40;;;3.90;74.00;;;;;;5074491;28;20021;-85
2022/04/17 06:14:46;;;;;;;9.25;6.85;;;4.10;73.50;;;;;;5074319;28;20029;-82
2022/04/17 06:17:12;;;;;;;7.72;5.88;;;4.20;72.90;;;;;;5074608;28;20028;-85
2022/04/17 06:19:38;;;;;;;9.45;6.00;;;4.30;72.30;;;;;;5056333;28;20282;-83
2022/04/17 06:22:04;;;;;;;9.25;6.18;;;4.40;71.60;;;;;;5074216;28;20025;-83
2022/04/17 06:24:30;;;;;;;14.35;7.32;;;4.60;71.50;;;;;;5074234;28;20529;-83
2022/04/17 06:26:56;;;;;;;11.40;6.30;;;4.70;71.80;;;;;;5074043;28;20063;-84
2022/04/17 06:29:22;;;;;;;8.80;5.63;;;4.70;70.70;;;;;;5073740;28;20099;-82
2022/04/17 06:31:47;;;;;;;9.77;5.60;;;4.80;71.60;;;;;;5074154;28;20513;-85
2022/04/17 06:34:13;;;;;;;10.45;5.60;;;5.00;70.40;;;;;;5073900;28;20029;-85
2022/04/17 06:36:39;;;;;;;10.77;6.07;;;4.90;69.40;;;;;;5056452;28;20025;-85
2022/04/17 06:39:05;;;;;;;8.05;4.75;;;5.10;70.40;;;;;;5073504;28;20032;-86
2022/04/17 06:41:31;;;;;;;6.75;5.45;;;5.10;69.10;;;;;;5056462;28;20047;-85
2022/04/17 06:43:56;;;;;;;8.27;5.63;;;5.10;67.90;;;;;;5073387;28;20024;-86
2022/04/17 06:46:22;;;;;;;10.40;5.82;;;5.20;67.70;;;;;;5056246;28;20103;-83
2022/04/17 06:48:48;;;;;;;8.77;5.43;;;5.40;68.10;;;;;;5073437;28;20037;-86
2022/04/17 06:51:13;;;;;;;9.73;5.78;;;5.40;66.40;;;;;;5074240;28;20059;-84
2022/04/17 06:53:39;;;;;;;9.93;5.38;;;5.40;66.60;;;;;;5073681;28;20434;-83
2022/04/17 06:56:06;;;;;;;8.88;5.30;;;5.30;66.90;;;;;;5071146;28;20020;-83
2022/04/17 06:58:32;;;;;;;7.97;5.10;;;5.20;67.70;;;;;;5072547;28;20029;-85
2022/04/17 07:00:58;;;;;;;8.27;5.65;;;5.30;67.90;;;;;;5062374;28;20060;-85
2022/04/17 07:03:24;;;;;;;7.40;5.20;;;5.30;68.70;;;;;;5072513;28;20032;-83
2022/04/17 07:05:49;;;;;;;7.93;4.30;;;5.20;68.20;;;;;;5069501;28;20092;-84
2022/04/17 07:08:15;;;;;;;6.13;4.95;;;5.20;66.30;;;;;;5071823;28;20017;-82
2022/04/17 07:10:41;;;;;;;8.82;4.97;;;5.20;66.00;;;;;;5059720;28;20119;-82
2022/04/17 07:13:08;;;;;;;7.05;4.50;;;5.20;66.80;;;;;;5072028;28;20032;-85
2022/04/17 07:15:34;;;;;;;14.70;7.57;;;5.30;66.20;;;;;;5073136;28;20054;-84
2022/04/17 07:18:00;;;;;;;24.83;11.38;;;5.40;66.50;;;;;;5073445;28;20150;-83
2022/04/17 07:20:25;;;;;;;11.95;7.05;;;5.60;65.10;;;;;;5073168;28;20024;-83
2022/04/17 07:22:51;;;;;;;5.88;3.63;;;5.90;63.20;;;;;;5073062;28;20028;-85
2022/04/17 07:25:17;;;;;;;7.25;4.43;;;6.10;61.70;;;;;;5073492;28;20055;-83
2022/04/17 07:27:49;;;;;;;6.03;4.03;;;6.40;60.80;;;;;;5073074;28;20386;-83
2022/04/17 07:30:20;;;;;;;5.20;3.03;;;6.40;59.50;;;;;;5072561;28;20386;-85
2022/04/17 07:32:50;;;;;;;4.75;3.40;;;6.00;57.80;;;;;;5073175;28;20386;-85
2022/04/17 07:35:18;;;;;;;5.00;2.90;;;6.20;59.00;;;;;;5072936;28;20032;-86
2022/04/17 07:37:49;;;;;;;3.00;2.40;;;6.20;56.40;;;;;;5055263;28;20162;-85
2022/04/17 07:40:21;;;;;;;2.92;2.67;;;6.20;56.40;;;;;;5072699;28;20024;-82
2022/04/17 07:42:47;;;;;;;52.47;19.95;;;6.10;57.60;;;;;;5072986;28;20029;-82
2022/04/17 07:45:15;;;;;;;5.95;3.65;;;5.90;58.60;;;;;;5072659;28;20031;-83
2022/04/17 07:47:44;;;;;;;4.68;2.90;;;6.00;57.70;;;;;;5054898;28;20027;-85
2022/04/17 07:50:12;;;;;;;4.10;2.90;;;6.30;56.60;;;;;;5054337;28;20024;-85
2022/04/17 07:52:39;;;;;;;3.70;3.40;;;6.50;56.10;;;;;;5072808;28;20021;-85
2022/04/17 07:55:06;;;;;;;4.85;3.35;;;6.80;56.80;;;;;;5072601;28;20105;-83
2022/04/17 08:00:21;;;;;;;7.63;3.90;;;6.90;54.30;;;;;;5071968;28;20059;-84
2022/04/17 08:03:06;;;;;;;4.00;3.13;;;6.60;55.20;;;;;;5072557;28;20016;-86
2022/04/17 08:05:34;;;;;;;6.18;3.28;;;6.60;56.40;;;;;;5053795;28;20032;-86
2022/04/17 08:07:59;;;;;;;4.47;2.83;;;6.40;55.00;;;;;;5072312;28;20024;-86
2022/04/17 08:10:25;;;;;;;8.18;5.18;;;6.40;55.40;;;;;;5054809;28;20021;-83
2022/04/17 08:12:51;;;;;;;3.60;3.00;;;6.30;55.60;;;;;;5074237;28;20469;-83
2022/04/17 08:15:17;;;;;;;6.90;4.53;;;6.40;55.00;;;;;;5076628;28;20390;-86
2022/04/17 08:17:42;;;;;;;4.05;2.80;;;6.40;55.30;;;;;;5076364;28;20017;-83
2022/04/17 08:20:09;;;;;;;2.92;2.65;;;6.50;53.70;;;;;;5058461;28;20041;-83
2022/04/17 08:22:34;;;;;;;3.63;2.45;;;6.30;53.40;;;;;;5076097;28;20108;-85
2022/04/17 08:25:00;;;;;;;4.50;2.80;;;6.30;54.10;;;;;;5076545;28;20438;-86
2022/04/17 08:27:26;;;;;;;3.33;3.03;;;6.50;54.40;;;;;;5075045;28;20024;-85
2022/04/17 08:29:51;;;;;;;2.90;2.60;;;6.40;52.40;;;;;;5074842;28;20909;-85
2022/04/17 08:32:17;;;;;;;2.75;2.05;;;6.30;51.80;;;;;;5074949;28;20028;-86
2022/04/17 08:34:44;;;;;;;3.95;2.45;;;6.50;52.20;;;;;;5075572;28;20025;-85
2022/04/17 08:37:10;;;;;;;2.42;2.33;;;6.50;52.20;;;;;;5075112;28;20016;-84
2022/04/17 08:39:35;;;;;;;3.88;2.22;;;6.40;53.30;;;;;;5074115;28;21690;-88
2022/04/17 08:42:04;;;;;;;2.67;2.47;;;6.40;53.70;;;;;;5075670;28;20031;-83
2022/04/17 08:44:30;;;;;;;2.78;2.58;;;6.60;53.10;;;;;;5074857;28;20056;-83
2022/04/17 08:46:55;;;;;;;4.03;2.50;;;7.10;53.20;;;;;;5074683;28;20039;-88
2022/04/17 08:49:23;;;;;;;3.97;2.83;;;7.50;52.30;;;;;;5076167;28;20493;-84
2022/04/17 08:51:52;;;;;;;4.25;2.03;;;7.90;50.80;;;;;;5074300;28;20083;-84
2022/04/17 08:54:18;;;;;;;2.83;2.63;;;7.50;46.70;;;;;;5073548;28;20017;-87
2022/04/17 08:56:43;;;;;;;4.18;2.85;;;7.50;46.10;;;;;;5055690;28;20024;-84
2022/04/17 08:59:09;;;;;;;1.42;1.40;;;7.30;46.70;;;;;;5074174;28;20409;-84
2022/04/17 09:01:38;;;;;;;1.70;1.60;;;7.20;44.30;;;;;;5075364;28;20111;-84
2022/04/17 09:04:04;;;;;;;1.90;1.80;;;7.10;43.60;;;;;;5074950;28;20016;-88
2022/04/17 09:06:29;;;;;;;3.75;2.30;;;7.10;44.50;;;;;;5076025;28;20027;-88
2022/04/17 09:08:59;;;;;;;4.97;2.42;;;7.20;45.70;;;;;;5057319;28;20043;-84
2022/04/17 09:11:26;;;;;;;1.58;1.48;;;7.20;44.90;;;;;;5075595;28;20025;-86
2022/04/17 09:13:57;;;;;;;2.35;1.67;;;7.00;45.10;;;;;;5057271;28;20024;-88
2022/04/17 09:16:43;;;;;;;2.30;1.88;;;7.10;46.50;;;;;;5074566;28;20051;-86
2022/04/17 09:19:16;;;;;;;4.03;2.60;;;6.90;47.00;;;;;;5070403;28;20116;-83
2022/04/17 09:21:42;;;;;;;;;;;6.80;48.70;;;;;;5070291;28;20055;-87
2022/04/17 09:24:20;;;;;;;2.10;2.00;;;6.70;49.00;;;;;;5052775;28;19939;-83
2022/04/17 09:26:49;;;;;;;2.33;1.80;;;6.70;49.00;;;;;;5071253;28;20035;-84
2022/04/17 09:29:26;;;;;;;2.58;2.10;;;6.60;49.50;;;;;;5070148;28;20021;-87
2022/04/17 09:31:59;;;;;;;3.38;2.60;;;6.50;50.40;;;;;;5071098;28;20025;-86
2022/04/17 09:34:26;;;;;;;3.55;2.60;;;6.40;50.70;;;;;;5070907;28;20025;-84
2022/04/17 09:37:00;;;;;;;4.15;2.67;;;6.60;51.60;;;;;;5069849;28;20673;-86
2022/04/17 09:39:33;;;;;;;2.90;2.65;;;7.00;51.90;;;;;;5051853;28;20602;-87
2022/04/17 09:42:00;;;;;;;8.13;4.05;;;7.10;51.40;;;;;;5070113;28;20024;-87
2022/04/17 09:44:46;;;;;;;7.38;4.30;;;7.30;51.30;;;;;;5073446;28;20025;-85
2022/04/17 09:47:17;;;;;;;3.95;2.70;;;7.50;50.70;;;;;;5073292;28;20021;-84
2022/04/17 09:49:59;;;;;;;2.60;2.40;;;7.80;50.90;;;;;;5074070;28;20021;-84
2022/04/17 09:52:44;;;;;;;2.38;2.15;;;8.10;50.50;;;;;;5056720;28;20027;-87
2022/04/17 09:55:11;;;;;;;3.22;2.65;;;8.00;49.60;;;;;;5075136;28;20033;-84
2022/04/17 09:57:39;;;;;;;3.42;2.47;;;7.80;50.10;;;;;;5074475;28;20055;-86
2022/04/17 10:00:16;;;;;;;10.70;5.30;;;7.70;51.20;;;;;;5074585;28;20063;-89
2022/04/17 10:02:44;;;;;;;4.07;3.17;;;7.40;51.20;;;;;;5074607;28;20082;-87
2022/04/17 10:05:19;;;;;;;5.70;3.92;;;7.20;51.80;;;;;;5074830;28;20027;-87
2022/04/17 10:07:46;;;;;;;5.22;2.90;;;7.20;52.60;;;;;;5074664;28;20023;-84
2022/04/17 10:10:13;;;;;;;4.82;3.05;;;7.20;53.30;;;;;;5074750;28;20024;-88
2022/04/17 10:12:39;;;;;;;4.32;2.88;;;7.00;53.00;;;;;;5056619;28;20051;-84
2022/04/17 10:15:10;;;;;;;5.93;3.42;;;7.10;52.80;;;;;;5074282;28;20474;-87
2022/04/17 10:17:41;;;;;;;3.40;3.10;;;7.00;52.40;;;;;;5074532;28;20052;-84
2022/04/17 10:20:09;;;;;;;10.57;3.65;;;6.90;52.00;;;;;;5074458;28;20029;-84
2022/04/17 10:22:37;;;;;;;2.45;2.13;;;7.00;52.10;;;;;;5056221;28;20028;-84
2022/04/17 10:25:09;;;;;;;4.45;2.25;;;7.10;51.60;;;;;;5074101;28;20116;-84
2022/04/17 10:27:45;;;;;;;3.13;2.83;;;7.20;51.10;;;;;;5074467;28;20021;-83
2022/04/17 10:30:21;;;;;;;2.40;2.17;;;7.50;50.60;;;;;;5055537;28;20056;-83
2022/04/17 10:33:24;;;;;;;2.35;2.15;;;7.70;50.80;;;;;;5073899;28;20032;-86
2022/04/17 10:36:27;;;;;;;13.63;5.65;;;7.60;47.70;;;;;;5073081;28;20035;-83
2022/04/17 10:39:16;;;;;;;1.63;1.50;;;7.60;47.20;;;;;;5055648;28;20036;-83
2022/04/17 10:41:42;;;;;;;2.90;1.65;;;7.50;48.10;;;;;;5073913;28;20017;-82
2022/04/17 10:44:12;;;;;;;2.85;2.63;;;7.60;48.50;;;;;;5055994;28;20017;-87
2022/04/17 10:46:52;;;;;;;3.35;2.00;;;7.60;48.40;;;;;;5073510;28;20434;-85
2022/04/17 10:49:19;;;;;;;6.38;2.88;;;7.60;47.90;;;;;;5073403;28;20378;-83
2022/04/17 10:51:56;;;;;;;4.68;2.83;;;7.60;48.50;;;;;;5073577;28;20016;-86
2022/04/17 10:54:23;;;;;;;2.33;2.08;;;7.80;47.60;;;;;;5073817;28;20013;-84
2022/04/17 10:56:55;;;;;;;2.70;2.33;;;7.70;46.90;;;;;;5055775;28;20111;-83
2022/04/17 10:59:28;;;;;;;3.23;2.17;;;8.20;47.50;;;;;;5072880;28;20056;-86
2022/04/17 11:02:00;;;;;;;4.20;1.98;;;8.40;46.30;;;;;;5073717;28;20259;-83
2022/04/17 11:04:28;;;;;;;2.85;2.35;;;8.40;46.20;;;;;;5055258;28;20031;-87
2022/04/17 11:07:06;;;;;;;2.05;1.90;;;8.10;46.80;;;;;;5073426;28;20044;-86
2022/04/17 11:09:41;;;;;;;3.17;2.22;;;7.70;48.10;;;;;;5055380;28;20021;-83
2022/04/17 11:12:11;;;;;;;3.25;2.45;;;7.60;49.70;;;;;;5055470;28;20025;-83
2022/04/17 11:14:39;;;;;;;5.90;3.00;;;7.50;50.00;;;;;;5073135;28;20023;-86
2022/04/17 11:17:11;;;;;;;6.47;2.92;;;7.40;49.90;;;;;;5073257;28;20028;-86
2022/04/17 11:19:39;;;;;;;4.40;2.25;;;7.20;50.00;;;;;;5072916;28;20024;-83
2022/04/17 11:22:07;;;;;;;7.70;4.55;;;7.50;49.90;;;;;;5055785;28;20477;-83
2022/04/17 11:24:54;;;;;;;9.10;3.75;;;7.70;50.10;;;;;;5072709;28;20078;-86
2022/04/17 11:27:52;;;;;;;7.15;4.20;;;7.60;49.10;;;;;;5073191;28;20040;-87
2022/04/17 11:30:17;;;;;;;11.13;6.85;;;7.60;48.20;;;;;;5072266;28;20033;-86
2022/04/17 11:32:43;;;;;;;13.05;6.88;;;7.60;47.90;;;;;;5073097;28;20032;-85
2022/04/17 11:35:14;;;;;;;14.02;8.20;;;7.60;47.10;;;;;;5072587;28;20028;-86
2022/04/17 11:37:40;;;;;;;5.88;3.60;;;7.70;47.40;;;;;;5072834;28;20024;-83
2022/04/17 11:40:13;;;;;;;2.97;2.03;;;7.90;47.10;;;;;;5072294;28;20028;-87
2022/04/17 11:42:44;;;;;;;2.90;2.13;;;8.10;46.60;;;;;;5072684;28;20385;-83
2022/04/17 11:45:12;;;;;;;2.58;2.10;;;8.20;44.90;;;;;;5054864;28;20561;-83
2022/04/17 11:47:43;;;;;;;2.08;1.80;;;8.20;44.40;;;;;;5073046;28;20104;-83
2022/04/17 11:50:10;;;;;;;2.20;1.88;;;8.40;44.60;;;;;;5054632;28;20028;-83
2022/04/17 11:52:36;;;;;;;2.38;2.13;;;8.40;44.80;;;;;;5072862;28;20441;-84
2022/04/17 11:55:03;;;;;;;3.15;2.85;;;8.20;45.30;;;;;;5072183;28;20478;-87
2022/04/17 11:57:29;;;;;;;3.42;2.47;;;8.30;45.80;;;;;;5072821;28;20393;-86
2022/04/17 11:59:57;;;;;;;3.80;2.50;;;8.20;45.40;;;;;;5072176;28;20048;-83
2022/04/17 12:02:24;;;;;;;2.03;1.83;;;8.10;46.40;;;;;;5072730;28;20444;-84
2022/04/17 12:04:55;;;;;;;1.98;1.88;;;8.10;45.70;;;;;;5072069;28;20033;-84
2022/04/17 12:07:26;;;;;;;2.30;2.10;;;8.50;46.70;;;;;;5072694;28;20378;-87
2022/04/17 12:10:13;;;;;;;4.43;2.55;;;8.60;46.90;;;;;;5072557;28;20031;-84
2022/04/17 12:12:44;;;;;;;2.83;1.77;;;8.60;45.50;;;;;;5054853;28;20020;-84
2022/04/17 12:15:15;;;;;;;2.65;1.75;;;8.60;44.90;;;;;;5072042;28;20024;-84
2022/04/17 12:17:41;;;;;;;1.67;1.58;;;8.30;43.70;;;;;;5072415;28;20031;-84
2022/04/17 12:20:09;;;;;;;2.72;2.30;;;8.20;43.40;;;;;;5072336;28;20025;-84
2022/04/17 12:22:36;;;;;;;4.30;2.20;;;8.10;43.90;;;;;;5072546;28;20017;-86
2022/04/17 12:25:04;;;;;;;2.83;1.90;;;8.20;43.70;;;;;;5072068;28;20028;-84
2022/04/17 12:27:30;;;;;;;3.33;2.13;;;8.00;44.40;;;;;;5072420;28;20376;-84
2022/04/17 12:29:59;;;;;;;3.67;3.38;;;8.10;46.00;;;;;;5071970;28;20096;-86
2022/04/17 12:32:26;;;;;;;8.73;6.95;;;8.00;46.20;;;;;;5054717;28;20032;-84
2022/04/17 12:35:03;;;;;;;6.20;5.70;;;8.10;46.90;;;;;;5071935;28;20427;-86
2022/04/17 12:37:33;;;;;;;5.30;4.78;;;8.20;47.30;;;;;;5054647;28;20426;-84
2022/04/17 12:40:21;;;;;;;9.52;7.53;;;8.30;47.20;;;;;;5071953;28;20040;-84
2022/04/17 12:42:48;;;;;;;5.25;4.25;;;8.30;46.40;;;;;;5072210;28;20170;-86
2022/04/17 12:45:25;;;;;;;8.57;6.43;;;8.60;46.30;;;;;;5071627;28;20435;-86
2022/04/17 12:48:07;;;;;;;10.77;9.38;;;8.90;45.30;;;;;;5054100;28;20166;-86
2022/04/17 12:50:33;;;;;;;4.40;3.78;;;8.80;44.00;;;;;;5071917;28;20032;-83
2022/04/17 12:53:01;;;;;;;6.43;5.55;;;8.80;43.90;;;;;;5071953;28;20025;-86
2022/04/17 12:55:32;;;;;;;2.60;2.40;;;8.70;43.80;;;;;;5071914;28;20031;-84
2022/04/17 12:57:58;;;;;;;3.42;2.40;;;8.50;42.50;;;;;;5072414;28;20382;-84
2022/04/17 13:00:30;;;;;;;2.90;2.63;;;8.40;42.10;;;;;;5057382;28;20186;-87
2022/04/17 13:03:10;;;;;;;27.17;23.85;;;8.40;42.40;;;;;;5057919;28;20028;-84
2022/04/17 13:05:36;;;;;;;6.15;5.30;;;8.50;42.70;;;;;;5075419;28;20063;-84
2022/04/17 13:08:06;;;;;;;3.70;2.60;;;8.50;42.70;;;;;;5076060;28;20383;-84
2022/04/17 13:10:32;;;;;;;5.40;2.50;;;8.50;42.10;;;;;;5075386;28;20039;-87
2022/04/17 13:12:58;;;;;;;7.70;4.10;;;8.40;40.30;;;;;;5057989;28;20170;-86